Time;durP1;ratioP1;P1;durP2;ratioP2;P2;SDS_P1;SDS_P2;PMS_P1;PMS_P2;Temp;Humidity;BMP_temperature;BMP_pressure;BME280_temperature;BME280_humidity;BME280_pressure;Samples;Min_cycle;Max_cycle;Signal;HPM_P1;HPM_P2
2021/01/10 00:00:27;;;;;;;140.35;61.75;;;0.30;2201.60;;;;;;4914519;29;20032;-67
2021/01/10 00:02:54;;;;;;;115.65;54.80;;;0.40;2201.60;;;;;;4912333;29;20036;-67
2021/01/10 00:05:25;;;;;;;104.10;50.92;;;0.30;2201.60;;;;;;4915278;29;20028;-67
2021/01/10 00:07:52;;;;;;;100.60;52.20;;;0.20;2201.60;;;;;;4907518;29;20063;-66
2021/01/10 00:10:19;;;;;;;113.40;53.08;;;0.30;2201.60;;;;;;4914688;29;20032;-68
2021/01/10 00:12:45;;;;;;;137.73;63.00;;;0.20;2201.60;;;;;;4915811;29;20530;-66
2021/01/10 00:15:13;;;;;;;144.52;67.50;;;0.30;2201.60;;;;;;4916121;29;20032;-67
2021/01/10 00:17:40;;;;;;;123.70;59.00;;;0.40;2201.60;;;;;;4914835;29;20028;-67
2021/01/10 00:20:08;;;;;;;120.90;57.47;;;0.40;2201.60;;;;;;4911546;29;20037;-68
2021/01/10 00:22:33;;;;;;;146.88;68.80;;;0.50;2201.60;;;;;;4892479;29;20485;-67
2021/01/10 00:24:59;;;;;;;123.10;57.25;;;0.50;2201.60;;;;;;4907442;29;20032;-68
2021/01/10 00:27:26;;;;;;;115.88;55.10;;;0.50;2201.60;;;;;;4914764;29;20028;-68
2021/01/10 00:29:53;;;;;;;101.63;51.55;;;0.50;2201.60;;;;;;4914888;29;20039;-68
2021/01/10 00:32:19;;;;;;;108.88;53.17;;;0.50;2201.60;;;;;;4910597;29;20031;-68
2021/01/10 00:34:45;;;;;;;94.82;49.17;;;0.50;2201.60;;;;;;4915572;29;20051;-68
2021/01/10 00:37:17;;;;;;;97.57;48.65;;;0.50;2201.60;;;;;;4904983;29;20104;-67
2021/01/10 00:39:44;;;;;;;89.88;47.50;;;0.50;2201.60;;;;;;4906640;29;20517;-68
2021/01/10 00:42:13;;;;;;;88.65;45.45;;;0.50;2201.60;;;;;;4915108;29;20066;-67
2021/01/10 00:44:44;;;;;;;80.43;43.85;;;0.60;2201.60;;;;;;4916325;29;20136;-68
2021/01/10 00:47:10;;;;;;;76.82;42.58;;;0.60;2201.60;;;;;;4915851;29;20016;-67
2021/01/10 00:49:37;;;;;;;75.05;41.65;;;0.60;2201.60;;;;;;4909232;29;20500;-67
2021/01/10 00:52:04;;;;;;;81.57;43.63;;;0.70;2201.60;;;;;;4915094;29;20156;-68
2021/01/10 00:54:30;;;;;;;87.72;47.33;;;0.60;2201.60;;;;;;4898560;29;20170;-68
2021/01/10 00:56:56;;;;;;;102.28;51.85;;;0.60;2201.60;;;;;;4914142;29;20032;-67
2021/01/10 00:59:23;;;;;;;88.82;45.80;;;0.60;2201.60;;;;;;4914337;29;20095;-67
2021/01/10 01:01:48;;;;;;;87.07;44.97;;;0.50;2201.60;;;;;;4914556;29;20167;-67
2021/01/10 01:04:14;;;;;;;100.72;49.67;;;0.50;2201.60;;;;;;4915735;29;20492;-67
2021/01/10 01:06:40;;;;;;;95.97;48.67;;;0.50;2201.60;;;;;;4913003;29;20042;-67
2021/01/10 01:09:06;;;;;;;94.07;48.65;;;0.50;2201.60;;;;;;4913174;29;20069;-68
2021/01/10 01:11:34;;;;;;;98.00;49.85;;;0.50;2201.60;;;;;;4913237;29;20024;-68
2021/01/10 01:14:00;;;;;;;96.97;47.88;;;0.50;2201.60;;;;;;4915329;29;20016;-68
2021/01/10 01:16:26;;;;;;;92.80;49.42;;;0.50;2201.60;;;;;;4914610;29;20029;-67
2021/01/10 01:18:52;;;;;;;99.53;49.90;;;0.50;2201.60;;;;;;4916110;29;20482;-68
2021/01/10 01:21:19;;;;;;;92.93;48.97;;;0.50;2201.60;;;;;;4915528;29;20024;-68
2021/01/10 01:23:45;;;;;;;93.35;49.58;;;0.40;2201.60;;;;;;4914280;29;20058;-67
2021/01/10 01:26:20;;;;;;;95.43;48.30;;;0.30;2201.60;;;;;;4915191;29;20031;-68
2021/01/10 01:28:47;;;;;;;87.45;46.20;;;0.40;2201.60;;;;;;4916675;29;20044;-67
2021/01/10 01:31:19;;;;;;;91.32;47.20;;;0.40;2201.60;;;;;;4911156;29;20100;-68
2021/01/10 01:33:48;;;;;;;93.85;47.47;;;0.40;2201.60;;;;;;4914970;29;20502;-67
2021/01/10 01:36:24;;;;;;;95.55;47.15;;;0.50;2201.60;;;;;;4897913;29;20072;-68
2021/01/10 01:38:57;;;;;;;95.22;47.95;;;0.50;2201.60;;;;;;4913908;29;20245;-68
2021/01/10 01:41:24;;;;;;;104.53;49.28;;;0.40;2201.60;;;;;;4912883;29;20509;-68
2021/01/10 01:43:50;;;;;;;93.30;48.63;;;0.50;2201.60;;;;;;4913135;29;20558;-67
2021/01/10 01:46:29;;;;;;;91.40;47.90;;;0.50;2201.60;;;;;;4915003;29;20052;-68
2021/01/10 01:48:57;;;;;;;95.32;47.70;;;0.50;2201.60;;;;;;4913952;29;20382;-68
2021/01/10 01:51:24;;;;;;;96.25;47.97;;;0.50;2201.60;;;;;;4914890;29;20178;-67
2021/01/10 01:53:50;;;;;;;92.68;47.15;;;0.60;2201.60;;;;;;4913446;29;20024;-67
2021/01/10 01:56:16;;;;;;;94.32;49.08;;;0.60;2201.60;;;;;;4915003;29;20035;-67
2021/01/10 01:59:00;;;;;;;92.47;47.05;;;0.70;2201.60;;;;;;4914258;29;20127;-67
2021/01/10 02:01:28;;;;;;;90.15;48.00;;;0.70;2201.60;;;;;;4906822;29;20063;-67
2021/01/10 02:04:25;;;;;;;90.30;47.75;;;0.70;2201.60;;;;;;4914126;29;20035;-67
2021/01/10 02:07:34;;;;;;;90.10;47.38;;;0.70;2201.60;;;;;;4913290;29;20398;-67
2021/01/10 02:10:06;;;;;;;94.60;48.03;;;0.80;2201.60;;;;;;4874751;29;20088;-68
2021/01/10 02:12:39;;;;;;;96.45;48.03;;;0.80;2201.60;;;;;;4873698;29;20112;-67
2021/01/10 02:15:14;;;;;;;129.40;60.78;;;0.70;2201.60;;;;;;4873490;29;20045;-68
2021/01/10 02:17:46;;;;;;;90.05;45.75;;;0.70;2201.60;;;;;;4874386;29;20052;-68
2021/01/10 02:20:34;;;;;;;86.75;45.83;;;0.70;2201.60;;;;;;4874876;29;20092;-68
2021/01/10 02:23:05;;;;;;;87.95;44.60;;;0.60;2201.60;;;;;;4873172;29;20056;-67
2021/01/10 02:25:34;;;;;;;88.53;46.47;;;0.50;2201.60;;;;;;4877979;29;20128;-68
2021/01/10 02:28:01;;;;;;;94.90;48.10;;;0.50;2201.60;;;;;;4877592;29;20036;-68
2021/01/10 02:30:29;;;;;;;112.38;54.38;;;0.50;2201.60;;;;;;4877844;29;20558;-68
2021/01/10 02:33:18;;;;;;;120.38;58.83;;;0.50;2201.60;;;;;;4864371;29;20542;-67
2021/01/10 02:35:45;;;;;;;96.47;47.22;;;0.60;2201.60;;;;;;4840381;29;20067;-68
2021/01/10 02:38:35;;;;;;;107.97;54.80;;;0.60;2201.60;;;;;;4844883;29;20046;-68
2021/01/10 02:41:25;;;;;;;98.68;50.17;;;0.70;2201.60;;;;;;4841523;29;20124;-67
2021/01/10 02:44:02;;;;;;;95.78;50.08;;;0.60;2201.60;;;;;;4837394;29;20038;-67
2021/01/10 02:46:28;;;;;;;85.50;46.35;;;0.70;2201.60;;;;;;4852966;29;20041;-68
2021/01/10 02:48:55;;;;;;;200.93;101.72;;;0.80;2201.60;;;;;;4859900;29;20029;-67
2021/01/10 02:51:20;;;;;;;89.05;47.63;;;0.60;2201.60;;;;;;4858206;29;20048;-67
2021/01/10 02:53:46;;;;;;;83.28;45.40;;;0.70;2201.60;;;;;;4852757;29;20045;-68
2021/01/10 02:56:12;;;;;;;80.75;43.05;;;0.80;2201.60;;;;;;4853067;29;20038;-68
2021/01/10 02:58:40;;;;;;;85.78;45.85;;;0.80;2201.60;;;;;;4852187;29;20070;-68
2021/01/10 03:01:09;;;;;;;80.05;42.95;;;0.90;2201.60;;;;;;4858330;29;20101;-68
2021/01/10 03:03:36;;;;;;;83.57;44.83;;;0.90;2201.60;;;;;;4858618;29;20083;-68
2021/01/10 03:06:02;;;;;;;78.05;43.75;;;0.90;2201.60;;;;;;4858804;29;20041;-68
2021/01/10 03:08:29;;;;;;;85.75;45.63;;;0.90;2201.60;;;;;;4853292;29;20046;-68
2021/01/10 03:10:55;;;;;;;80.82;43.38;;;0.90;2201.60;;;;;;4854563;29;20037;-68
2021/01/10 03:13:22;;;;;;;89.75;44.80;;;0.90;2201.60;;;;;;4899379;29;20044;-68
2021/01/10 03:15:48;;;;;;;80.93;43.83;;;0.90;2201.60;;;;;;4917233;29;20024;-68
2021/01/10 03:18:18;;;;;;;79.22;42.67;;;25.60;2201.60;;;;;;4913900;29;20028;-67
2021/01/10 03:20:44;;;;;;;79.72;42.47;;;0.90;2201.60;;;;;;4920280;29;20027;-68
2021/01/10 03:23:10;;;;;;;80.45;44.05;;;0.90;2201.60;;;;;;4920060;29;20371;-68
2021/01/10 03:25:35;;;;;;;76.55;41.78;;;0.80;2201.60;;;;;;4916883;29;20059;-68
2021/01/10 03:28:01;;;;;;;74.15;40.67;;;0.80;2201.60;;;;;;4915206;29;20036;-68
2021/01/10 03:30:27;;;;;;;78.63;40.97;;;0.80;2201.60;;;;;;4911772;29;20032;-68
2021/01/10 03:32:52;;;;;;;83.20;44.45;;;0.80;2201.60;;;;;;4914545;29;20478;-68
2021/01/10 03:35:18;;;;;;;82.20;41.85;;;0.80;2201.60;;;;;;4916181;29;20482;-72
2021/01/10 03:37:44;;;;;;;77.38;41.65;;;0.80;2201.60;;;;;;4914926;29;20028;-68
2021/01/10 03:40:11;;;;;;;88.78;45.58;;;0.80;2201.60;;;;;;4915179;29;20043;-68
2021/01/10 03:42:37;;;;;;;91.30;45.78;;;0.70;2201.60;;;;;;4914877;29;20084;-68
2021/01/10 03:45:05;;;;;;;92.22;46.05;;;0.70;2201.60;;;;;;4914358;29;20036;-68
2021/01/10 03:47:30;;;;;;;84.88;44.45;;;0.60;2201.60;;;;;;4898861;29;20079;-67
2021/01/10 03:49:56;;;;;;;91.35;45.40;;;0.50;2201.60;;;;;;4913938;29;20036;-68
2021/01/10 03:52:21;;;;;;;89.50;44.40;;;0.50;2201.60;;;;;;4914197;29;20490;-67
2021/01/10 03:54:47;;;;;;;90.95;46.30;;;0.50;2201.60;;;;;;4913608;29;20071;-67
2021/01/10 03:57:13;;;;;;;85.13;42.22;;;0.50;2201.60;;;;;;4915239;29;20028;-68
2021/01/10 03:59:39;;;;;;;90.95;44.80;;;0.60;2201.60;;;;;;4915519;29;20806;-67
2021/01/10 04:02:05;;;;;;;88.38;44.53;;;0.60;2201.60;;;;;;4912514;29;20036;-67
2021/01/10 04:04:30;;;;;;;91.72;45.35;;;0.60;2201.60;;;;;;4913138;29;20506;-67
2021/01/10 04:06:56;;;;;;;83.55;42.58;;;0.60;2201.60;;;;;;4906976;29;20115;-68
2021/01/10 04:09:22;;;;;;;95.32;46.45;;;0.40;2201.60;;;;;;4913651;29;20405;-67
2021/01/10 04:11:48;;;;;;;90.82;44.72;;;0.40;2201.60;;;;;;4912141;29;20031;-68
2021/01/10 04:14:13;;;;;;;86.20;44.75;;;0.30;2201.60;;;;;;4914296;29;20043;-68
2021/01/10 04:16:39;;;;;;;87.75;44.65;;;0.40;2201.60;;;;;;4909925;29;20440;-68
2021/01/10 04:19:05;;;;;;;82.78;42.20;;;0.40;2201.60;;;;;;4913568;29;20036;-68
2021/01/10 04:21:32;;;;;;;72.30;38.25;;;0.40;2201.60;;;;;;4913115;29;20039;-68
2021/01/10 04:23:57;;;;;;;81.85;41.33;;;0.40;2201.60;;;;;;4913148;29;20027;-67
2021/01/10 04:26:23;;;;;;;80.10;41.83;;;0.40;2201.60;;;;;;4913983;29;20367;-68
2021/01/10 04:28:49;;;;;;;84.03;41.97;;;0.40;2201.60;;;;;;4915141;29;20028;-67
2021/01/10 04:31:16;;;;;;;81.20;41.22;;;0.40;2201.60;;;;;;4914372;29;20528;-68
2021/01/10 04:33:42;;;;;;;77.15;40.13;;;0.40;2201.60;;;;;;4912666;29;20028;-68
2021/01/10 04:36:08;;;;;;;76.60;40.45;;;0.30;2201.60;;;;;;4912748;29;20038;-68
2021/01/10 04:38:33;;;;;;;77.57;39.40;;;0.20;2201.60;;;;;;4911643;29;20044;-69
2021/01/10 04:41:00;;;;;;;83.28;42.88;;;0.20;2201.60;;;;;;4915040;29;20585;-67
2021/01/10 04:43:25;;;;;;;84.93;43.03;;;0.30;2201.60;;;;;;4912948;29;20043;-68
2021/01/10 04:45:51;;;;;;;83.82;42.60;;;0.30;2201.60;;;;;;4913081;29;20720;-68
2021/01/10 04:48:18;;;;;;;81.38;42.83;;;0.30;2201.60;;;;;;4897387;29;20390;-68
2021/01/10 04:50:44;;;;;;;88.45;43.35;;;0.30;2201.60;;;;;;4908361;29;20020;-67
2021/01/10 04:53:12;;;;;;;85.97;43.53;;;0.40;2201.60;;;;;;4914206;29;20095;-67
2021/01/10 04:55:38;;;;;;;96.38;44.58;;;0.30;2201.60;;;;;;4914191;29;20040;-67
2021/01/10 04:58:07;;;;;;;96.85;43.97;;;0.20;2201.60;;;;;;4915527;29;20075;-68
2021/01/10 05:00:34;;;;;;;97.47;45.30;;;0.10;2201.60;;;;;;4914990;29;20119;-68
2021/01/10 05:03:05;;;;;;;98.65;43.70;;;0.10;2201.60;;;;;;4912483;29;20146;-68
2021/01/10 05:05:34;;;;;;;107.45;47.75;;;0.20;2201.60;;;;;;4912468;29;20454;-68
2021/01/10 05:08:00;;;;;;;113.32;47.75;;;0.30;2201.60;;;;;;4908396;29;20503;-67
2021/01/10 05:10:26;;;;;;;105.43;46.05;;;0.30;2201.60;;;;;;4909370;29;20084;-74
2021/01/10 05:12:52;;;;;;;108.38;48.10;;;0.30;2201.60;;;;;;4887597;29;20061;-69
2021/01/10 05:15:18;;;;;;;113.07;47.13;;;0.30;2201.60;;;;;;4880053;29;20815;-70
2021/01/10 05:17:55;;;;;;;116.38;47.85;;;0.10;2201.60;;;;;;4875050;29;20039;-69
2021/01/10 05:20:23;;;;;;;121.32;49.50;;;0.30;2201.60;;;;;;4875620;29;20887;-69
2021/01/10 05:23:04;;;;;;;130.15;50.15;;;13.10;2201.60;;;;;;4901132;28;20042;-68
2021/01/10 05:25:30;;;;;;;117.35;47.97;;;0.40;2201.60;;;;;;4876049;29;20154;-71
2021/01/10 05:27:57;;;;;;;111.32;47.33;;;0.30;2201.60;;;;;;4872285;29;20032;-71
2021/01/10 05:30:33;;;;;;;120.78;48.65;;;0.40;2201.60;;;;;;4927085;29;20032;-75
2021/01/10 05:33:03;;;;;;;108.70;45.88;;;0.30;2201.60;;;;;;4904850;29;20044;-72
2021/01/10 05:35:47;;;;;;;107.10;46.35;;;0.70;2201.60;;;;;;4899736;29;20041;-73
2021/01/10 05:38:29;;;;;;;105.82;45.33;;;0.30;2201.60;;;;;;4915697;29;20039;-75
2021/01/10 05:41:11;;;;;;;117.93;47.08;;;0.30;2201.60;;;;;;4912457;29;20123;-71
2021/01/10 05:44:03;;;;;;;105.95;45.83;;;0.30;2201.60;;;;;;4918949;28;20048;-72
2021/01/10 05:46:31;;;;;;;121.10;48.22;;;0.40;2201.60;;;;;;4880030;29;20570;-70
2021/01/10 05:48:59;;;;;;;118.10;46.58;;;0.40;2201.60;;;;;;4881039;29;21482;-70
2021/01/10 05:51:29;;;;;;;112.78;47.55;;;0.40;2201.60;;;;;;4932856;29;20088;-73
2021/01/10 05:53:56;;;;;;;109.60;46.78;;;0.50;2201.60;;;;;;4902060;29;20484;-74
2021/01/10 05:56:33;;;;;;;116.35;48.40;;;0.60;2201.60;;;;;;4906882;29;20043;-68
2021/01/10 05:58:59;;;;;;;112.22;50.28;;;0.40;2201.60;;;;;;4884165;29;20370;-76
2021/01/10 06:02:02;;;;;;;133.50;58.92;;;0.40;2201.60;;;;;;4904919;29;20436;-71
2021/01/10 06:04:30;;;;;;;112.57;48.03;;;0.50;2201.60;;;;;;4871240;29;20158;-66
2021/01/10 06:06:57;;;;;;;113.85;47.38;;;0.40;2201.60;;;;;;4864515;29;20068;-69
2021/01/10 06:09:23;;;;;;;110.22;47.83;;;0.50;2201.60;;;;;;4881982;29;20058;-69
2021/01/10 06:11:49;;;;;;;110.22;46.42;;;0.40;2201.60;;;;;;4891492;29;20036;-69
2021/01/10 06:14:26;;;;;;;107.80;46.03;;;0.40;2201.60;;;;;;4934351;29;20016;-70
2021/01/10 06:16:57;;;;;;;113.25;48.88;;;0.40;2201.60;;;;;;4939227;28;20046;-70
2021/01/10 06:19:28;;;;;;;109.10;47.20;;;0.40;2201.60;;;;;;4931206;28;20040;-71
2021/01/10 06:21:59;;;;;;;107.25;47.85;;;0.40;2201.60;;;;;;4903573;29;20148;-70
2021/01/10 06:24:31;;;;;;;99.20;44.47;;;0.40;2201.60;;;;;;4890651;29;20043;-69
2021/01/10 06:27:03;;;;;;;98.00;45.05;;;0.40;2201.60;;;;;;4930997;29;20025;-69
2021/01/10 06:29:39;;;;;;;99.07;45.70;;;0.40;2201.60;;;;;;4936371;29;20032;-70
2021/01/10 06:32:10;;;;;;;100.45;46.72;;;0.40;2201.60;;;;;;4938810;29;20040;-71
2021/01/10 06:34:39;;;;;;;91.18;43.85;;;0.50;2201.60;;;;;;4938859;29;20047;-70
2021/01/10 06:37:09;;;;;;;88.95;43.40;;;0.50;2201.60;;;;;;4942577;28;20032;-73
2021/01/10 06:39:45;;;;;;;94.10;45.13;;;0.50;2201.60;;;;;;4936458;28;20044;-69
2021/01/10 06:42:15;;;;;;;103.35;45.95;;;0.60;2201.60;;;;;;4931665;29;20047;-70
2021/01/10 06:44:47;;;;;;;91.93;43.50;;;0.50;2201.60;;;;;;4883455;29;20035;-69
2021/01/10 06:47:17;;;;;;;96.05;45.90;;;0.50;2201.60;;;;;;4871895;29;20028;-69
2021/01/10 06:49:53;;;;;;;94.93;45.17;;;0.50;2201.60;;;;;;4883027;29;20060;-69
2021/01/10 06:52:27;;;;;;;101.97;47.30;;;0.50;2201.60;;;;;;4882186;29;20518;-73
2021/01/10 06:54:52;;;;;;;;;;;0.80;2201.60;;;;;;4883338;29;20123;-67
2021/01/10 06:57:19;;;;;;;102.60;47.17;;;0.50;2201.60;;;;;;4889527;29;19923;-68
2021/01/10 07:00:14;;;;;;;112.68;47.17;;;0.50;2201.60;;;;;;4910690;29;20944;-72
2021/01/10 07:03:19;;;;;;;105.97;47.28;;;0.50;2201.60;;;;;;4885892;29;20056;-76
2021/01/10 07:06:06;;;;;;;104.07;48.35;;;25.90;2201.60;;;;;;4817109;29;20105;-77
2021/01/10 07:08:44;;;;;;;94.13;44.88;;;0.70;2201.60;;;;;;4819250;29;20078;-72
2021/01/10 07:11:24;;;;;;;94.70;45.00;;;0.70;2201.60;;;;;;4796539;29;20046;-71
2021/01/10 07:13:56;;;;;;;93.28;44.90;;;0.70;2201.60;;;;;;4786242;29;20058;-73
2021/01/10 07:16:26;;;;;;;89.20;43.53;;;0.70;2201.60;;;;;;4787379;29;20050;-73
2021/01/10 07:19:03;;;;;;;89.93;44.95;;;0.70;2201.60;;;;;;4787186;29;20058;-74
2021/01/10 07:21:39;;;;;;;94.65;46.25;;;0.70;2201.60;;;;;;4787576;29;20613;-68
2021/01/10 07:24:19;;;;;;;105.25;50.72;;;0.70;2201.60;;;;;;4787928;29;20053;-69
2021/01/10 07:26:59;;;;;;;103.30;49.25;;;0.60;2201.60;;;;;;4808461;29;20042;-70
2021/01/10 07:29:33;;;;;;;115.47;51.67;;;0.50;2201.60;;;;;;4789207;29;20154;-76
2021/01/10 07:32:23;;;;;;;112.80;51.58;;;0.60;2201.60;;;;;;4812970;29;20043;-71
2021/01/10 07:34:49;;;;;;;107.88;48.88;;;0.70;2201.60;;;;;;4819060;29;20034;-76
2021/01/10 07:37:31;;;;;;;106.70;49.20;;;0.60;2201.60;;;;;;4848240;29;20060;-73
2021/01/10 07:40:01;;;;;;;109.53;51.22;;;0.70;2201.60;;;;;;4912904;29;20060;-73
2021/01/10 07:42:40;;;;;;;105.30;49.17;;;0.60;2201.60;;;;;;4888204;29;20036;-72
2021/01/10 07:45:23;;;;;;;101.80;47.75;;;0.80;2201.60;;;;;;4882826;29;20054;-71
2021/01/10 07:47:50;;;;;;;98.32;47.28;;;0.80;2201.60;;;;;;4875774;29;20458;-72
2021/01/10 07:50:16;;;;;;;99.15;48.28;;;0.80;2201.60;;;;;;4884993;29;20557;-70
2021/01/10 07:52:42;;;;;;;103.68;49.00;;;26.00;2201.60;;;;;;4871768;29;20035;-68
2021/01/10 07:55:19;;;;;;;99.75;47.03;;;0.90;2201.60;;;;;;4885070;29;20032;-75
2021/01/10 07:57:52;;;;;;;101.25;46.85;;;0.80;2201.60;;;;;;4885670;29;20648;-67
2021/01/10 08:00:30;;;;;;;99.32;45.28;;;0.90;2201.60;;;;;;4901065;29;20056;-71
2021/01/10 08:03:01;;;;;;;99.53;47.78;;;0.90;2201.60;;;;;;4887437;29;20056;-74
2021/01/10 08:05:36;;;;;;;100.53;47.63;;;25.60;2201.60;;;;;;4884542;29;20048;-72
2021/01/10 08:08:04;;;;;;;92.07;45.10;;;0.90;2201.60;;;;;;4884520;29;20577;-71
2021/01/10 08:10:53;;;;;;;99.43;47.40;;;25.60;2201.60;;;;;;4894309;29;20042;-68
2021/01/10 08:13:44;;;;;;;106.30;50.25;;;0.90;2201.60;;;;;;4888134;29;20138;-68
2021/01/10 08:16:28;;;;;;;98.50;46.40;;;0.70;2201.60;;;;;;4886847;29;20039;-68
2021/01/10 08:18:53;;;;;;;;;;;0.60;2201.60;;;;;;4882535;29;20119;-68
2021/01/10 08:21:19;;;;;;;107.28;50.75;;;0.80;2201.60;;;;;;4884808;29;19946;-68
2021/01/10 08:23:53;;;;;;;98.88;46.40;;;0.70;2201.60;;;;;;4887135;29;20465;-68
2021/01/10 08:26:19;;;;;;;102.22;47.53;;;0.80;2201.60;;;;;;4887127;29;20492;-68
2021/01/10 08:28:47;;;;;;;109.93;48.90;;;0.90;2201.60;;;;;;4890187;29;20388;-68
2021/01/10 08:31:16;;;;;;;103.28;49.97;;;0.90;2201.60;;;;;;4895454;29;20142;-68
2021/01/10 08:33:42;;;;;;;100.10;47.92;;;25.60;2201.60;;;;;;4892772;29;20050;-68
2021/01/10 08:36:20;;;;;;;107.07;49.67;;;25.60;2201.60;;;;;;4897750;29;20785;-69
2021/01/10 08:38:49;;;;;;;104.60;50.10;;;0.80;2201.60;;;;;;4879281;29;20047;-68
2021/01/10 08:41:23;;;;;;;91.57;44.03;;;25.80;2201.60;;;;;;4879424;29;20055;-68
2021/01/10 08:43:58;;;;;;;84.97;45.22;;;26.00;2201.60;;;;;;4885030;29;20032;-67
2021/01/10 08:46:28;;;;;;;96.90;48.97;;;26.00;2201.60;;;;;;4879781;29;20511;-69
2021/01/10 08:48:55;;;;;;;99.35;50.30;;;25.80;2201.60;;;;;;4879221;29;20072;-67
2021/01/10 08:51:42;;;;;;;84.65;45.80;;;25.80;2201.60;;;;;;4888654;29;20036;-75
2021/01/10 08:54:36;;;;;;;91.30;48.63;;;25.80;2201.60;;;;;;4894720;29;20027;-73
2021/01/10 08:57:13;;;;;;;119.28;55.03;;;25.70;2201.60;;;;;;4875470;29;20051;-76
2021/01/10 08:59:39;;;;;;;97.45;50.33;;;25.60;2201.60;;;;;;4884690;29;20052;-73
2021/01/10 09:02:08;;;;;;;100.95;51.33;;;25.60;2201.60;;;;;;4907818;29;20644;-70
2021/01/10 09:04:42;;;;;;;108.47;53.13;;;25.60;2201.60;;;;;;4913261;29;20098;-71
2021/01/10 09:07:10;;;;;;;99.30;51.00;;;25.60;2201.60;;;;;;4900199;29;20052;-67
2021/01/10 09:09:51;;;;;;;102.68;50.40;;;25.60;2201.60;;;;;;4881057;29;20048;-71
2021/01/10 09:12:16;;;;;;;85.72;47.03;;;0.60;2201.60;;;;;;4868362;29;20041;-69
2021/01/10 09:14:43;;;;;;;91.20;47.28;;;0.50;2201.60;;;;;;4896945;29;20079;-69
2021/01/10 09:17:10;;;;;;;90.63;46.63;;;0.60;2201.60;;;;;;4863371;29;20058;-72
2021/01/10 09:19:36;;;;;;;91.68;48.20;;;0.70;2201.60;;;;;;4877674;29;20041;-68
2021/01/10 09:22:03;;;;;;;99.55;48.17;;;0.80;2201.60;;;;;;4906905;29;20051;-71
2021/01/10 09:24:32;;;;;;;94.47;48.63;;;25.60;2201.60;;;;;;4912865;29;20059;-66
2021/01/10 09:27:14;;;;;;;94.30;48.60;;;0.90;2201.60;;;;;;4867307;29;20033;-73
2021/01/10 09:29:43;;;;;;;100.00;49.33;;;25.60;2201.60;;;;;;4896740;29;20508;-69
2021/01/10 09:32:10;;;;;;;104.05;49.58;;;0.90;2201.60;;;;;;4888072;29;20209;-69
2021/01/10 09:34:36;;;;;;;122.72;54.55;;;0.90;2201.60;;;;;;4890146;29;20028;-68
2021/01/10 09:37:06;;;;;;;124.15;54.03;;;25.60;2201.60;;;;;;4906396;29;20111;-74
2021/01/10 09:39:42;;;;;;;101.43;49.38;;;0.80;2201.60;;;;;;4901109;29;20056;-72
2021/01/10 09:42:09;;;;;;;96.82;47.92;;;25.60;2201.60;;;;;;4886696;29;20298;-75
2021/01/10 09:44:41;;;;;;;99.82;47.05;;;0.40;2201.60;;;;;;4914539;29;20032;-75
2021/01/10 09:47:06;;;;;;;104.82;49.22;;;0.90;2201.60;;;;;;4933380;28;20016;-74
2021/01/10 09:49:34;;;;;;;108.95;49.33;;;0.90;2201.60;;;;;;4894145;29;20039;-74
2021/01/10 09:52:10;;;;;;;88.40;45.42;;;0.70;2201.60;;;;;;4924793;29;20170;-73
2021/01/10 09:54:37;;;;;;;104.18;50.80;;;0.70;2201.60;;;;;;4912994;29;20024;-75
2021/01/10 09:57:17;;;;;;;103.25;49.90;;;25.60;2201.60;;;;;;4892057;29;20732;-68
2021/01/10 09:59:47;;;;;;;120.75;53.42;;;0.70;2201.60;;;;;;4888004;29;20071;-68
2021/01/10 10:02:17;;;;;;;109.60;50.88;;;0.70;2201.60;;;;;;4887811;29;20201;-71
2021/01/10 10:05:07;;;;;;;102.35;48.78;;;0.60;2201.60;;;;;;4880079;29;20887;-72
2021/01/10 10:07:47;;;;;;;100.95;50.40;;;0.70;2201.60;;;;;;4899109;29;20048;-68
2021/01/10 10:10:30;;;;;;;121.30;53.22;;;0.40;2201.60;;;;;;4907794;29;20036;-68
2021/01/10 10:13:12;;;;;;;101.93;47.90;;;0.40;2201.60;;;;;;4917247;29;20039;-68
2021/01/10 10:15:51;;;;;;;104.07;48.13;;;0.30;2201.60;;;;;;4917136;29;20039;-68
2021/01/10 10:18:19;;;;;;;117.45;49.20;;;0.30;2201.60;;;;;;4920423;29;20472;-68
2021/01/10 10:20:46;;;;;;;114.75;48.20;;;0.30;2201.60;;;;;;4917159;29;20130;-69
2021/01/10 10:23:13;;;;;;;104.13;46.40;;;0.40;2201.60;;;;;;4920149;29;20026;-69
2021/01/10 10:25:43;;;;;;;119.07;51.75;;;0.40;2201.60;;;;;;4902587;29;20043;-69
2021/01/10 10:28:10;;;;;;;114.30;51.83;;;0.40;2201.60;;;;;;4903732;29;20473;-68
2021/01/10 10:30:36;;;;;;;115.53;50.90;;;0.20;2201.60;;;;;;4917181;29;20040;-68
2021/01/10 10:33:03;;;;;;;103.75;47.05;;;0.20;2201.60;;;;;;4911521;29;20059;-68
2021/01/10 10:35:29;;;;;;;91.43;44.67;;;0.30;2201.60;;;;;;4918540;29;20033;-68
2021/01/10 10:37:55;;;;;;;84.13;43.08;;;0.40;2201.60;;;;;;4916514;29;20024;-68
2021/01/10 10:40:20;;;;;;;93.35;46.58;;;0.50;2201.60;;;;;;4922308;29;20135;-68
2021/01/10 10:42:47;;;;;;;95.22;45.55;;;0.50;2201.60;;;;;;4918290;29;20111;-67
2021/01/10 10:45:14;;;;;;;95.38;44.80;;;0.40;2201.60;;;;;;4918178;29;20035;-69
2021/01/10 10:47:39;;;;;;;84.05;43.38;;;0.40;2201.60;;;;;;4913985;29;20028;-68
2021/01/10 10:50:07;;;;;;;87.60;45.70;;;0.40;2201.60;;;;;;4899119;29;20031;-74
2021/01/10 10:52:33;;;;;;;88.25;45.47;;;0.50;2201.60;;;;;;4904345;29;20024;-68
2021/01/10 10:54:58;;;;;;;96.47;44.35;;;0.40;2201.60;;;;;;4917469;29;20486;-68
2021/01/10 10:57:24;;;;;;;107.43;47.83;;;0.50;2201.60;;;;;;4918622;29;20025;-68
2021/01/10 10:59:50;;;;;;;94.35;46.40;;;0.60;2201.60;;;;;;4920063;29;20047;-68
2021/01/10 11:02:16;;;;;;;87.60;43.13;;;0.70;2201.60;;;;;;4916947;29;20079;-68
2021/01/10 11:04:45;;;;;;;92.13;44.30;;;0.70;2201.60;;;;;;4916680;29;20035;-69
2021/01/10 11:07:14;;;;;;;98.65;45.85;;;0.70;2201.60;;;;;;4919113;29;20052;-68
2021/01/10 11:09:41;;;;;;;93.93;44.13;;;0.70;2201.60;;;;;;4918740;29;20107;-68
2021/01/10 11:12:11;;;;;;;103.38;48.97;;;0.60;2201.60;;;;;;4917068;29;20035;-68
2021/01/10 11:14:37;;;;;;;91.47;45.33;;;0.60;2201.60;;;;;;4914732;29;20032;-68
2021/01/10 11:17:07;;;;;;;112.20;49.20;;;0.70;2201.60;;;;;;4903705;29;20434;-68
2021/01/10 11:19:33;;;;;;;93.05;44.72;;;0.70;2201.60;;;;;;4904954;29;20116;-69
2021/01/10 11:22:04;;;;;;;106.82;48.88;;;0.80;2201.60;;;;;;4915279;29;20020;-68
2021/01/10 11:24:33;;;;;;;103.05;48.05;;;0.90;2201.60;;;;;;4918591;29;20102;-68
2021/01/10 11:27:00;;;;;;;108.97;51.38;;;0.80;2201.60;;;;;;4915928;29;20056;-68
2021/01/10 11:29:26;;;;;;;106.18;49.33;;;0.60;2201.60;;;;;;4918544;29;20135;-68
2021/01/10 11:31:52;;;;;;;103.20;46.75;;;0.50;2201.60;;;;;;4919137;29;20059;-68
2021/01/10 11:34:19;;;;;;;110.68;50.88;;;0.50;2201.60;;;;;;4924215;29;20059;-68
2021/01/10 11:36:47;;;;;;;105.18;52.17;;;0.50;2201.60;;;;;;4923459;29;20067;-68
2021/01/10 11:39:14;;;;;;;110.45;50.25;;;0.50;2201.60;;;;;;4936338;29;20051;-68
2021/01/10 11:41:54;;;;;;;129.25;52.50;;;0.50;2201.60;;;;;;4926786;29;20028;-68
2021/01/10 11:44:22;;;;;;;105.53;49.67;;;0.60;2201.60;;;;;;4920406;29;20020;-68
2021/01/10 11:46:49;;;;;;;109.70;50.40;;;0.60;2201.60;;;;;;4920117;29;20393;-68
2021/01/10 11:49:15;;;;;;;103.65;47.05;;;0.60;2201.60;;;;;;4934994;29;20489;-68
2021/01/10 11:51:41;;;;;;;123.82;52.05;;;0.50;2201.60;;;;;;4922639;29;20086;-68
2021/01/10 11:54:07;;;;;;;119.15;50.85;;;0.50;2201.60;;;;;;4932415;29;20027;-73
2021/01/10 11:56:34;;;;;;;130.10;53.25;;;0.60;2201.60;;;;;;4915239;29;20368;-68
2021/01/10 11:59:00;;;;;;;96.85;46.05;;;0.70;2201.60;;;;;;4905366;29;20037;-68
2021/01/10 12:01:31;;;;;;;109.13;49.40;;;0.50;2201.60;;;;;;4908182;29;20063;-68
2021/01/10 12:03:56;;;;;;;121.20;50.92;;;0.60;2201.60;;;;;;4911297;29;20032;-68
2021/01/10 12:06:22;;;;;;;123.20;53.47;;;0.70;2201.60;;;;;;4921913;29;20039;-68
2021/01/10 12:08:48;;;;;;;135.15;53.17;;;0.60;2201.60;;;;;;4916403;29;20079;-68
2021/01/10 12:11:17;;;;;;;109.25;47.28;;;25.60;2201.60;;;;;;4916452;29;20565;-68
2021/01/10 12:13:44;;;;;;;115.75;48.92;;;0.30;2201.60;;;;;;4898577;29;20573;-69
2021/01/10 12:16:17;;;;;;;108.25;46.65;;;0.20;2201.60;;;;;;4910498;29;20031;-68
2021/01/10 12:18:43;;;;;;;116.63;49.25;;;0.00;2201.60;;;;;;4915574;29;20118;-68
2021/01/10 12:21:13;;;;;;;107.82;45.80;;;12.90;2201.60;;;;;;4919464;29;20545;-68
2021/01/10 12:23:40;;;;;;;124.15;48.40;;;0.00;2201.60;;;;;;4916619;29;20091;-68
2021/01/10 12:26:15;;;;;;;131.18;47.20;;;13.00;2201.60;;;;;;4915872;29;20032;-68
2021/01/10 12:28:45;;;;;;;151.07;52.70;;;12.90;2201.60;;;;;;4914298;29;20080;-68